sensor_id;sensor_type;location;lat;lon;timestamp;temperature;humidity
25300;DHT22;13241;51.208;4.432;2023-05-13T00:01:56;15.80;99.90
25300;DHT22;13241;51.208;4.432;2023-05-13T00:04:23;15.80;99.90
25300;DHT22;13241;51.208;4.432;2023-05-13T00:06:50;15.80;99.90
25300;DHT22;13241;51.208;4.432;2023-05-13T00:09:17;15.70;99.90
25300;DHT22;13241;51.208;4.432;2023-05-13T00:11:44;15.70;99.90
25300;DHT22;13241;51.208;4.432;2023-05-13T00:14:11;15.70;99.90
25300;DHT22;13241;51.208;4.432;2023-05-13T00:16:38;15.60;99.90
25300;DHT22;13241;51.208;4.432;2023-05-13T00:19:06;15.70;99.90
25300;DHT22;13241;51.208;4.432;2023-05-13T00:21:33;15.60;99.90
25300;DHT22;13241;51.208;4.432;2023-05-13T00:23:59;15.60;99.90
25300;DHT22;13241;51.208;4.432;2023-05-13T00:26:26;15.50;99.90
25300;DHT22;13241;51.208;4.432;2023-05-13T00:28:53;15.40;99.90
25300;DHT22;13241;51.208;4.432;2023-05-13T00:31:20;15.50;99.90
25300;DHT22;13241;51.208;4.432;2023-05-13T00:33:47;15.30;99.90
25300;DHT22;13241;51.208;4.432;2023-05-13T00:36:14;15.30;99.90
25300;DHT22;13241;51.208;4.432;2023-05-13T00:38:41;15.40;99.90
25300;DHT22;13241;51.208;4.432;2023-05-13T00:41:10;15.40;99.90
25300;DHT22;13241;51.208;4.432;2023-05-13T00:43:37;15.40;99.90
25300;DHT22;13241;51.208;4.432;2023-05-13T00:46:04;15.50;99.90
25300;DHT22;13241;51.208;4.432;2023-05-13T00:48:32;15.50;99.90
25300;DHT22;13241;51.208;4.432;2023-05-13T00:50:59;15.50;99.90
25300;DHT22;13241;51.208;4.432;2023-05-13T00:53:26;15.60;99.90
25300;DHT22;13241;51.208;4.432;2023-05-13T00:55:53;15.60;99.90
25300;DHT22;13241;51.208;4.432;2023-05-13T00:58:20;15.60;99.90
25300;DHT22;13241;51.208;4.432;2023-05-13T01:07:04;15.60;99.90
25300;DHT22;13241;51.208;4.432;2023-05-13T01:12:20;15.50;99.90
25300;DHT22;13241;51.208;4.432;2023-05-13T01:14:57;15.50;99.90
25300;DHT22;13241;51.208;4.432;2023-05-13T01:17:32;15.50;99.90
25300;DHT22;13241;51.208;4.432;2023-05-13T01:20:02;15.50;99.90
25300;DHT22;13241;51.208;4.432;2023-05-13T01:22:30;15.50;99.90
25300;DHT22;13241;51.208;4.432;2023-05-13T01:24:58;15.40;99.90
25300;DHT22;13241;51.208;4.432;2023-05-13T01:27:25;15.50;99.90
25300;DHT22;13241;51.208;4.432;2023-05-13T01:29:54;15.40;99.90
25300;DHT22;13241;51.208;4.432;2023-05-13T01:32:26;15.40;99.90
25300;DHT22;13241;51.208;4.432;2023-05-13T01:34:54;15.40;99.90
25300;DHT22;13241;51.208;4.432;2023-05-13T01:37:22;15.40;99.90
25300;DHT22;13241;51.208;4.432;2023-05-13T01:39:53;15.40;99.90
25300;DHT22;13241;51.208;4.432;2023-05-13T01:42:23;15.40;99.90
25300;DHT22;13241;51.208;4.432;2023-05-13T01:44:52;15.50;99.90
25300;DHT22;13241;51.208;4.432;2023-05-13T01:47:21;15.50;99.90
25300;DHT22;13241;51.208;4.432;2023-05-13T01:49:49;15.50;99.90
25300;DHT22;13241;51.208;4.432;2023-05-13T01:52:20;15.20;99.90
25300;DHT22;13241;51.208;4.432;2023-05-13T01:54:50;15.40;99.90
25300;DHT22;13241;51.208;4.432;2023-05-13T01:57:22;15.40;99.90
25300;DHT22;13241;51.208;4.432;2023-05-13T01:59:52;15.40;99.90
25300;DHT22;13241;51.208;4.432;2023-05-13T02:02:19;15.40;99.90
25300;DHT22;13241;51.208;4.432;2023-05-13T02:04:51;15.50;99.90
25300;DHT22;13241;51.208;4.432;2023-05-13T02:07:20;15.40;99.90
25300;DHT22;13241;51.208;4.432;2023-05-13T02:09:51;15.40;99.90
25300;DHT22;13241;51.208;4.432;2023-05-13T02:12:27;15.40;99.90
25300;DHT22;13241;51.208;4.432;2023-05-13T02:14:59;15.40;99.90
25300;DHT22;13241;51.208;4.432;2023-05-13T02:17:30;15.40;99.90
25300;DHT22;13241;51.208;4.432;2023-05-13T02:19:58;15.30;99.90
25300;DHT22;13241;51.208;4.432;2023-05-13T02:22:26;15.40;99.90
25300;DHT22;13241;51.208;4.432;2023-05-13T02:24:55;15.40;99.90
25300;DHT22;13241;51.208;4.432;2023-05-13T02:27:22;15.30;99.90
25300;DHT22;13241;51.208;4.432;2023-05-13T02:29:51;15.30;99.90
25300;DHT22;13241;51.208;4.432;2023-05-13T02:32:24;15.30;99.90
25300;DHT22;13241;51.208;4.432;2023-05-13T02:34:53;15.30;99.90
25300;DHT22;13241;51.208;4.432;2023-05-13T02:37:46;15.30;99.90
25300;DHT22;13241;51.208;4.432;2023-05-13T02:40:17;15.30;99.90
25300;DHT22;13241;51.208;4.432;2023-05-13T02:46:30;15.20;99.90
25300;DHT22;13241;51.208;4.432;2023-05-13T02:49:00;15.20;99.90
25300;DHT22;13241;51.208;4.432;2023-05-13T02:51:31;15.20;99.90
25300;DHT22;13241;51.208;4.432;2023-05-13T02:54:00;15.20;99.90
25300;DHT22;13241;51.208;4.432;2023-05-13T02:56:29;15.20;99.90
25300;DHT22;13241;51.208;4.432;2023-05-13T02:59:00;15.20;99.90
25300;DHT22;13241;51.208;4.432;2023-05-13T03:01:27;15.20;99.90
25300;DHT22;13241;51.208;4.432;2023-05-13T03:03:58;15.20;99.90
25300;DHT22;13241;51.208;4.432;2023-05-13T03:06:26;15.20;99.90
25300;DHT22;13241;51.208;4.432;2023-05-13T03:08:57;15.20;99.90
25300;DHT22;13241;51.208;4.432;2023-05-13T03:11:24;15.10;99.90
25300;DHT22;13241;51.208;4.432;2023-05-13T03:13:52;15.10;99.90
25300;DHT22;13241;51.208;4.432;2023-05-13T03:16:20;15.10;99.90
25300;DHT22;13241;51.208;4.432;2023-05-13T03:18:47;15.00;99.90
25300;DHT22;13241;51.208;4.432;2023-05-13T03:21:19;15.00;99.90
25300;DHT22;13241;51.208;4.432;2023-05-13T03:23:50;14.90;99.90
25300;DHT22;13241;51.208;4.432;2023-05-13T03:26:19;14.90;99.90
25300;DHT22;13241;51.208;4.432;2023-05-13T03:28:47;14.80;99.90
25300;DHT22;13241;51.208;4.432;2023-05-13T03:31:18;14.70;99.90
25300;DHT22;13241;51.208;4.432;2023-05-13T03:33:47;14.70;99.90
25300;DHT22;13241;51.208;4.432;2023-05-13T03:36:21;14.60;99.90
25300;DHT22;13241;51.208;4.432;2023-05-13T03:38:48;14.50;99.90
25300;DHT22;13241;51.208;4.432;2023-05-13T03:41:16;14.60;99.90
25300;DHT22;13241;51.208;4.432;2023-05-13T03:43:47;14.60;99.90
25300;DHT22;13241;51.208;4.432;2023-05-13T03:46:19;14.60;99.90
25300;DHT22;13241;51.208;4.432;2023-05-13T03:48:49;14.50;99.90
25300;DHT22;13241;51.208;4.432;2023-05-13T03:51:16;14.50;99.90
25300;DHT22;13241;51.208;4.432;2023-05-13T03:53:44;14.50;99.90
25300;DHT22;13241;51.208;4.432;2023-05-13T03:56:13;14.50;99.90
25300;DHT22;13241;51.208;4.432;2023-05-13T03:58:46;14.40;99.90
25300;DHT22;13241;51.208;4.432;2023-05-13T04:01:14;14.50;99.90
25300;DHT22;13241;51.208;4.432;2023-05-13T04:03:41;14.40;99.90
25300;DHT22;13241;51.208;4.432;2023-05-13T04:06:12;14.40;99.90
25300;DHT22;13241;51.208;4.432;2023-05-13T04:08:50;14.50;99.90
25300;DHT22;13241;51.208;4.432;2023-05-13T04:11:20;14.40;99.90
25300;DHT22;13241;51.208;4.432;2023-05-13T04:13:47;14.50;99.90
25300;DHT22;13241;51.208;4.432;2023-05-13T04:16:17;14.50;99.90
25300;DHT22;13241;51.208;4.432;2023-05-13T04:18:44;14.50;99.90
25300;DHT22;13241;51.208;4.432;2023-05-13T04:21:11;14.50;99.90
25300;DHT22;13241;51.208;4.432;2023-05-13T04:23:38;14.50;99.90
25300;DHT22;13241;51.208;4.432;2023-05-13T04:26:05;14.60;99.90
25300;DHT22;13241;51.208;4.432;2023-05-13T04:28:32;14.60;99.90
25300;DHT22;13241;51.208;4.432;2023-05-13T04:31:00;14.70;99.90
25300;DHT22;13241;51.208;4.432;2023-05-13T04:33:29;14.70;99.90
25300;DHT22;13241;51.208;4.432;2023-05-13T04:35:56;14.80;99.90
25300;DHT22;13241;51.208;4.432;2023-05-13T04:38:23;14.80;99.90
25300;DHT22;13241;51.208;4.432;2023-05-13T04:40:50;14.90;99.90
25300;DHT22;13241;51.208;4.432;2023-05-13T04:43:24;14.90;99.90
25300;DHT22;13241;51.208;4.432;2023-05-13T04:45:55;14.80;99.90
25300;DHT22;13241;51.208;4.432;2023-05-13T04:48:22;14.90;99.90
25300;DHT22;13241;51.208;4.432;2023-05-13T04:50:49;14.90;99.90
25300;DHT22;13241;51.208;4.432;2023-05-13T04:53:17;14.90;99.90
25300;DHT22;13241;51.208;4.432;2023-05-13T04:55:48;14.90;99.90
25300;DHT22;13241;51.208;4.432;2023-05-13T04:58:16;14.90;99.90
25300;DHT22;13241;51.208;4.432;2023-05-13T05:00:43;15.00;99.90
25300;DHT22;13241;51.208;4.432;2023-05-13T05:03:11;15.00;99.90
25300;DHT22;13241;51.208;4.432;2023-05-13T05:05:38;15.00;99.90
25300;DHT22;13241;51.208;4.432;2023-05-13T05:08:07;15.00;99.90
25300;DHT22;13241;51.208;4.432;2023-05-13T05:10:35;15.00;99.90
25300;DHT22;13241;51.208;4.432;2023-05-13T05:13:02;15.10;99.90
25300;DHT22;13241;51.208;4.432;2023-05-13T05:15:29;15.20;99.90
25300;DHT22;13241;51.208;4.432;2023-05-13T05:17:58;15.20;99.90
25300;DHT22;13241;51.208;4.432;2023-05-13T05:20:26;15.30;99.90
25300;DHT22;13241;51.208;4.432;2023-05-13T05:22:56;15.30;99.90
25300;DHT22;13241;51.208;4.432;2023-05-13T05:25:25;15.40;99.90
25300;DHT22;13241;51.208;4.432;2023-05-13T05:27:52;15.40;99.90
25300;DHT22;13241;51.208;4.432;2023-05-13T05:30:19;15.40;99.90
25300;DHT22;13241;51.208;4.432;2023-05-13T05:32:55;15.40;99.90
25300;DHT22;13241;51.208;4.432;2023-05-13T05:35:23;15.40;99.90
25300;DHT22;13241;51.208;4.432;2023-05-13T05:37:50;15.50;99.90
25300;DHT22;13241;51.208;4.432;2023-05-13T05:40:18;15.50;99.90
25300;DHT22;13241;51.208;4.432;2023-05-13T05:42:47;15.60;99.90
25300;DHT22;13241;51.208;4.432;2023-05-13T05:45:14;15.60;99.90
25300;DHT22;13241;51.208;4.432;2023-05-13T05:47:41;15.60;99.90
25300;DHT22;13241;51.208;4.432;2023-05-13T05:50:10;15.60;99.90
25300;DHT22;13241;51.208;4.432;2023-05-13T05:52:37;15.60;99.90
25300;DHT22;13241;51.208;4.432;2023-05-13T05:55:04;15.70;99.90
25300;DHT22;13241;51.208;4.432;2023-05-13T05:57:32;15.70;99.90
25300;DHT22;13241;51.208;4.432;2023-05-13T05:59:59;15.70;99.90
25300;DHT22;13241;51.208;4.432;2023-05-13T06:02:26;15.80;99.90
25300;DHT22;13241;51.208;4.432;2023-05-13T06:04:54;15.90;99.90
25300;DHT22;13241;51.208;4.432;2023-05-13T06:07:21;16.00;99.90
25300;DHT22;13241;51.208;4.432;2023-05-13T06:09:48;16.00;99.90
25300;DHT22;13241;51.208;4.432;2023-05-13T06:12:15;16.10;99.90
25300;DHT22;13241;51.208;4.432;2023-05-13T06:14:42;16.20;99.90
25300;DHT22;13241;51.208;4.432;2023-05-13T06:17:08;16.20;99.90
25300;DHT22;13241;51.208;4.432;2023-05-13T06:19:35;16.30;99.90
25300;DHT22;13241;51.208;4.432;2023-05-13T06:22:02;16.40;99.90
25300;DHT22;13241;51.208;4.432;2023-05-13T06:24:30;16.50;99.90
25300;DHT22;13241;51.208;4.432;2023-05-13T06:26:56;16.60;99.90
25300;DHT22;13241;51.208;4.432;2023-05-13T06:29:24;16.60;99.90
25300;DHT22;13241;51.208;4.432;2023-05-13T06:31:52;16.70;99.90
25300;DHT22;13241;51.208;4.432;2023-05-13T06:34:19;16.60;99.90
25300;DHT22;13241;51.208;4.432;2023-05-13T06:36:46;16.60;99.90
25300;DHT22;13241;51.208;4.432;2023-05-13T06:39:13;16.60;99.90
25300;DHT22;13241;51.208;4.432;2023-05-13T06:41:41;16.80;99.90
25300;DHT22;13241;51.208;4.432;2023-05-13T06:44:13;16.90;99.90
25300;DHT22;13241;51.208;4.432;2023-05-13T06:46:44;17.10;99.90
25300;DHT22;13241;51.208;4.432;2023-05-13T06:49:11;17.10;99.90
25300;DHT22;13241;51.208;4.432;2023-05-13T06:51:38;17.30;99.90
25300;DHT22;13241;51.208;4.432;2023-05-13T06:54:05;17.40;99.90
25300;DHT22;13241;51.208;4.432;2023-05-13T06:56:32;17.50;99.90
25300;DHT22;13241;51.208;4.432;2023-05-13T06:59:00;17.40;99.90
25300;DHT22;13241;51.208;4.432;2023-05-13T07:01:27;17.40;99.90
25300;DHT22;13241;51.208;4.432;2023-05-13T07:03:54;17.30;99.90
25300;DHT22;13241;51.208;4.432;2023-05-13T07:06:21;17.20;99.90
25300;DHT22;13241;51.208;4.432;2023-05-13T07:08:48;17.30;99.90
25300;DHT22;13241;51.208;4.432;2023-05-13T07:11:15;17.10;99.90
25300;DHT22;13241;51.208;4.432;2023-05-13T07:13:42;17.00;99.90
25300;DHT22;13241;51.208;4.432;2023-05-13T07:16:10;17.00;99.90
25300;DHT22;13241;51.208;4.432;2023-05-13T07:18:37;17.00;99.90
25300;DHT22;13241;51.208;4.432;2023-05-13T07:21:04;17.10;99.90
25300;DHT22;13241;51.208;4.432;2023-05-13T07:23:32;17.30;99.90
25300;DHT22;13241;51.208;4.432;2023-05-13T07:25:59;17.50;99.90
25300;DHT22;13241;51.208;4.432;2023-05-13T07:28:26;17.70;99.90
25300;DHT22;13241;51.208;4.432;2023-05-13T07:30:52;17.90;99.90
25300;DHT22;13241;51.208;4.432;2023-05-13T07:33:23;18.20;99.90
25300;DHT22;13241;51.208;4.432;2023-05-13T07:35:52;18.50;99.90
25300;DHT22;13241;51.208;4.432;2023-05-13T07:38:19;18.90;99.90
25300;DHT22;13241;51.208;4.432;2023-05-13T07:40:46;19.20;99.90
25300;DHT22;13241;51.208;4.432;2023-05-13T07:43:13;19.30;99.90
25300;DHT22;13241;51.208;4.432;2023-05-13T07:45:40;19.60;99.90
25300;DHT22;13241;51.208;4.432;2023-05-13T07:48:08;19.70;99.90
25300;DHT22;13241;51.208;4.432;2023-05-13T07:50:35;19.90;99.90
25300;DHT22;13241;51.208;4.432;2023-05-13T07:53:02;20.00;99.90
25300;DHT22;13241;51.208;4.432;2023-05-13T07:55:30;20.10;99.90
25300;DHT22;13241;51.208;4.432;2023-05-13T07:57:57;20.20;99.90
25300;DHT22;13241;51.208;4.432;2023-05-13T08:00:24;20.20;99.90
25300;DHT22;13241;51.208;4.432;2023-05-13T08:02:51;20.20;99.90
25300;DHT22;13241;51.208;4.432;2023-05-13T08:05:18;20.10;99.90
25300;DHT22;13241;51.208;4.432;2023-05-13T08:07:45;20.00;99.90
25300;DHT22;13241;51.208;4.432;2023-05-13T08:10:12;19.80;99.90
25300;DHT22;13241;51.208;4.432;2023-05-13T08:12:39;19.70;99.90
25300;DHT22;13241;51.208;4.432;2023-05-13T08:15:06;19.70;99.90
25300;DHT22;13241;51.208;4.432;2023-05-13T08:17:34;19.40;99.90
25300;DHT22;13241;51.208;4.432;2023-05-13T08:20:01;19.40;99.90
25300;DHT22;13241;51.208;4.432;2023-05-13T08:22:29;19.50;99.90
25300;DHT22;13241;51.208;4.432;2023-05-13T08:24:56;19.70;99.90
25300;DHT22;13241;51.208;4.432;2023-05-13T08:27:26;20.00;99.90
25300;DHT22;13241;51.208;4.432;2023-05-13T08:29:53;20.20;99.90
25300;DHT22;13241;51.208;4.432;2023-05-13T08:32:20;20.40;99.90
25300;DHT22;13241;51.208;4.432;2023-05-13T08:34:47;20.50;99.90
25300;DHT22;13241;51.208;4.432;2023-05-13T08:37:14;20.50;99.90
25300;DHT22;13241;51.208;4.432;2023-05-13T08:39:41;20.60;99.90
25300;DHT22;13241;51.208;4.432;2023-05-13T08:42:10;20.50;99.90
25300;DHT22;13241;51.208;4.432;2023-05-13T08:44:38;20.50;99.90
25300;DHT22;13241;51.208;4.432;2023-05-13T08:49:50;20.70;99.90
25300;DHT22;13241;51.208;4.432;2023-05-13T08:52:17;20.70;99.90
25300;DHT22;13241;51.208;4.432;2023-05-13T08:54:46;20.60;99.90
25300;DHT22;13241;51.208;4.432;2023-05-13T08:57:15;20.60;99.90
25300;DHT22;13241;51.208;4.432;2023-05-13T08:59:42;20.80;99.90
25300;DHT22;13241;51.208;4.432;2023-05-13T09:02:09;20.80;99.90
25300;DHT22;13241;51.208;4.432;2023-05-13T09:04:39;21.10;99.90
25300;DHT22;13241;51.208;4.432;2023-05-13T09:07:08;21.30;99.90
25300;DHT22;13241;51.208;4.432;2023-05-13T09:09:35;21.30;99.90
25300;DHT22;13241;51.208;4.432;2023-05-13T09:12:02;21.40;99.90
25300;DHT22;13241;51.208;4.432;2023-05-13T09:14:30;21.50;99.90
25300;DHT22;13241;51.208;4.432;2023-05-13T09:17:03;21.60;99.90
25300;DHT22;13241;51.208;4.432;2023-05-13T09:19:30;21.70;99.90
25300;DHT22;13241;51.208;4.432;2023-05-13T09:21:57;21.90;99.90
25300;DHT22;13241;51.208;4.432;2023-05-13T09:24:25;22.10;99.90
25300;DHT22;13241;51.208;4.432;2023-05-13T09:26:52;22.10;99.90
25300;DHT22;13241;51.208;4.432;2023-05-13T09:29:23;22.10;99.90
25300;DHT22;13241;51.208;4.432;2023-05-13T09:31:55;22.10;99.90
25300;DHT22;13241;51.208;4.432;2023-05-13T09:34:27;22.20;99.90
25300;DHT22;13241;51.208;4.432;2023-05-13T09:37:06;22.20;99.90
25300;DHT22;13241;51.208;4.432;2023-05-13T09:39:39;22.20;99.90
25300;DHT22;13241;51.208;4.432;2023-05-13T09:42:16;22.30;99.90
25300;DHT22;13241;51.208;4.432;2023-05-13T09:44:44;22.30;99.90
25300;DHT22;13241;51.208;4.432;2023-05-13T09:47:15;22.30;99.90
25300;DHT22;13241;51.208;4.432;2023-05-13T09:49:43;22.30;99.90
25300;DHT22;13241;51.208;4.432;2023-05-13T09:52:15;22.40;99.90
25300;DHT22;13241;51.208;4.432;2023-05-13T09:54:43;22.30;99.90
25300;DHT22;13241;51.208;4.432;2023-05-13T09:57:12;22.30;99.90
25300;DHT22;13241;51.208;4.432;2023-05-13T09:59:40;22.40;99.90
25300;DHT22;13241;51.208;4.432;2023-05-13T10:02:07;22.40;99.90
25300;DHT22;13241;51.208;4.432;2023-05-13T10:04:34;22.50;99.90
25300;DHT22;13241;51.208;4.432;2023-05-13T10:07:03;22.60;99.90
25300;DHT22;13241;51.208;4.432;2023-05-13T10:09:34;22.60;99.90
25300;DHT22;13241;51.208;4.432;2023-05-13T10:12:02;22.70;99.90
25300;DHT22;13241;51.208;4.432;2023-05-13T10:14:30;22.80;99.90
25300;DHT22;13241;51.208;4.432;2023-05-13T10:16:58;22.90;99.90
25300;DHT22;13241;51.208;4.432;2023-05-13T10:19:26;22.80;99.90
25300;DHT22;13241;51.208;4.432;2023-05-13T10:21:53;22.80;99.90
25300;DHT22;13241;51.208;4.432;2023-05-13T10:24:23;22.80;99.90
25300;DHT22;13241;51.208;4.432;2023-05-13T10:26:53;22.90;99.90
25300;DHT22;13241;51.208;4.432;2023-05-13T10:29:21;23.00;99.90
25300;DHT22;13241;51.208;4.432;2023-05-13T10:31:48;22.90;99.90
25300;DHT22;13241;51.208;4.432;2023-05-13T10:34:16;22.80;99.90
25300;DHT22;13241;51.208;4.432;2023-05-13T10:37:49;22.90;99.90
25300;DHT22;13241;51.208;4.432;2023-05-13T10:40:17;23.10;99.90
25300;DHT22;13241;51.208;4.432;2023-05-13T10:43:09;23.10;99.90
25300;DHT22;13241;51.208;4.432;2023-05-13T10:45:37;23.10;99.90
25300;DHT22;13241;51.208;4.432;2023-05-13T10:48:07;23.10;99.90
25300;DHT22;13241;51.208;4.432;2023-05-13T10:50:37;23.00;99.90
25300;DHT22;13241;51.208;4.432;2023-05-13T10:53:27;23.00;99.90
25300;DHT22;13241;51.208;4.432;2023-05-13T10:55:55;23.00;99.90
25300;DHT22;13241;51.208;4.432;2023-05-13T10:58:30;23.20;99.90
25300;DHT22;13241;51.208;4.432;2023-05-13T11:01:25;23.20;99.90
25300;DHT22;13241;51.208;4.432;2023-05-13T11:03:59;23.30;99.90
25300;DHT22;13241;51.208;4.432;2023-05-13T11:09:00;23.20;99.90
25300;DHT22;13241;51.208;4.432;2023-05-13T11:11:32;23.30;99.90
25300;DHT22;13241;51.208;4.432;2023-05-13T11:16:34;23.30;99.90
25300;DHT22;13241;51.208;4.432;2023-05-13T11:19:44;23.30;99.90
25300;DHT22;13241;51.208;4.432;2023-05-13T11:22:08;23.50;99.90
25300;DHT22;13241;51.208;4.432;2023-05-13T11:24:40;23.50;99.90
25300;DHT22;13241;51.208;4.432;2023-05-13T11:27:18;23.50;99.90
25300;DHT22;13241;51.208;4.432;2023-05-13T11:29:49;23.90;99.90
25300;DHT22;13241;51.208;4.432;2023-05-13T11:35:19;24.60;99.90
25300;DHT22;13241;51.208;4.432;2023-05-13T11:37:46;24.70;99.90
25300;DHT22;13241;51.208;4.432;2023-05-13T11:40:25;24.90;99.90
25300;DHT22;13241;51.208;4.432;2023-05-13T11:42:52;25.00;99.90
25300;DHT22;13241;51.208;4.432;2023-05-13T11:45:21;24.80;99.90
25300;DHT22;13241;51.208;4.432;2023-05-13T11:47:49;24.70;99.90
25300;DHT22;13241;51.208;4.432;2023-05-13T11:50:29;24.70;99.90
25300;DHT22;13241;51.208;4.432;2023-05-13T11:52:58;25.00;99.90
25300;DHT22;13241;51.208;4.432;2023-05-13T11:55:30;24.90;99.90
25300;DHT22;13241;51.208;4.432;2023-05-13T11:57:58;24.80;99.90
25300;DHT22;13241;51.208;4.432;2023-05-13T12:00:26;24.70;99.90
25300;DHT22;13241;51.208;4.432;2023-05-13T12:02:53;24.50;99.90
25300;DHT22;13241;51.208;4.432;2023-05-13T12:05:21;24.50;99.90
25300;DHT22;13241;51.208;4.432;2023-05-13T12:07:49;24.70;99.90
25300;DHT22;13241;51.208;4.432;2023-05-13T12:10:16;24.80;99.90
25300;DHT22;13241;51.208;4.432;2023-05-13T12:12:44;24.70;99.90
25300;DHT22;13241;51.208;4.432;2023-05-13T12:15:17;24.80;99.90
25300;DHT22;13241;51.208;4.432;2023-05-13T12:17:44;24.90;99.90
25300;DHT22;13241;51.208;4.432;2023-05-13T12:20:17;25.00;99.90
25300;DHT22;13241;51.208;4.432;2023-05-13T12:25:45;25.40;99.90
25300;DHT22;13241;51.208;4.432;2023-05-13T12:31:02;25.70;99.90
25300;DHT22;13241;51.208;4.432;2023-05-13T12:33:42;25.50;99.90
25300;DHT22;13241;51.208;4.432;2023-05-13T12:38:59;25.50;99.90
25300;DHT22;13241;51.208;4.432;2023-05-13T12:41:34;25.30;99.90
25300;DHT22;13241;51.208;4.432;2023-05-13T12:44:07;25.10;99.90
25300;DHT22;13241;51.208;4.432;2023-05-13T12:46:35;24.80;99.90
25300;DHT22;13241;51.208;4.432;2023-05-13T12:49:03;24.70;99.90
25300;DHT22;13241;51.208;4.432;2023-05-13T12:51:31;24.80;99.90
25300;DHT22;13241;51.208;4.432;2023-05-13T12:54:02;24.60;99.90
25300;DHT22;13241;51.208;4.432;2023-05-13T12:56:30;24.70;99.90
25300;DHT22;13241;51.208;4.432;2023-05-13T12:58:57;25.00;99.90
25300;DHT22;13241;51.208;4.432;2023-05-13T13:01:24;25.10;99.90
25300;DHT22;13241;51.208;4.432;2023-05-13T13:03:51;25.00;99.90
25300;DHT22;13241;51.208;4.432;2023-05-13T13:06:18;24.90;99.90
25300;DHT22;13241;51.208;4.432;2023-05-13T13:08:45;24.90;99.90
25300;DHT22;13241;51.208;4.432;2023-05-13T13:11:12;24.50;99.90
25300;DHT22;13241;51.208;4.432;2023-05-13T13:13:44;24.40;99.90
25300;DHT22;13241;51.208;4.432;2023-05-13T13:16:12;24.30;99.90
25300;DHT22;13241;51.208;4.432;2023-05-13T13:18:39;24.20;99.90
25300;DHT22;13241;51.208;4.432;2023-05-13T13:21:06;24.30;99.90
25300;DHT22;13241;51.208;4.432;2023-05-13T13:23:33;24.80;99.90
25300;DHT22;13241;51.208;4.432;2023-05-13T13:26:00;25.30;99.90
25300;DHT22;13241;51.208;4.432;2023-05-13T13:28:27;25.60;99.90
25300;DHT22;13241;51.208;4.432;2023-05-13T13:30:54;25.40;99.90
25300;DHT22;13241;51.208;4.432;2023-05-13T13:33:21;25.10;99.90
25300;DHT22;13241;51.208;4.432;2023-05-13T13:35:49;24.70;99.90
25300;DHT22;13241;51.208;4.432;2023-05-13T13:38:17;24.40;99.90
25300;DHT22;13241;51.208;4.432;2023-05-13T13:40:43;24.80;99.90
25300;DHT22;13241;51.208;4.432;2023-05-13T13:43:10;26.20;99.90
25300;DHT22;13241;51.208;4.432;2023-05-13T13:45:38;27.50;99.90
25300;DHT22;13241;51.208;4.432;2023-05-13T13:48:05;28.10;99.90
25300;DHT22;13241;51.208;4.432;2023-05-13T13:50:32;28.00;99.90
25300;DHT22;13241;51.208;4.432;2023-05-13T13:52:59;27.40;99.90
25300;DHT22;13241;51.208;4.432;2023-05-13T13:55:26;27.00;99.90
25300;DHT22;13241;51.208;4.432;2023-05-13T13:57:53;27.20;99.90
25300;DHT22;13241;51.208;4.432;2023-05-13T14:00:20;28.30;99.90
25300;DHT22;13241;51.208;4.432;2023-05-13T14:02:47;28.60;99.60
25300;DHT22;13241;51.208;4.432;2023-05-13T14:05:14;28.50;99.90
25300;DHT22;13241;51.208;4.432;2023-05-13T14:07:41;28.80;99.70
25300;DHT22;13241;51.208;4.432;2023-05-13T14:10:09;29.10;98.80
25300;DHT22;13241;51.208;4.432;2023-05-13T14:12:36;29.60;98.50
25300;DHT22;13241;51.208;4.432;2023-05-13T14:15:04;30.20;97.00
25300;DHT22;13241;51.208;4.432;2023-05-13T14:17:32;29.70;95.00
25300;DHT22;13241;51.208;4.432;2023-05-13T14:19:59;28.50;93.10
25300;DHT22;13241;51.208;4.432;2023-05-13T14:22:26;27.30;96.30
25300;DHT22;13241;51.208;4.432;2023-05-13T14:24:53;26.20;99.90
25300;DHT22;13241;51.208;4.432;2023-05-13T14:27:20;25.00;99.90
25300;DHT22;13241;51.208;4.432;2023-05-13T14:29:47;23.50;99.90
25300;DHT22;13241;51.208;4.432;2023-05-13T14:32:15;22.30;99.90
25300;DHT22;13241;51.208;4.432;2023-05-13T14:34:42;21.70;99.90
25300;DHT22;13241;51.208;4.432;2023-05-13T14:37:09;21.50;99.90
25300;DHT22;13241;51.208;4.432;2023-05-13T14:39:36;21.50;99.90
25300;DHT22;13241;51.208;4.432;2023-05-13T14:42:03;21.70;99.90
25300;DHT22;13241;51.208;4.432;2023-05-13T14:44:30;22.10;99.90
25300;DHT22;13241;51.208;4.432;2023-05-13T14:46:57;22.50;99.90
25300;DHT22;13241;51.208;4.432;2023-05-13T14:49:24;22.50;99.90
25300;DHT22;13241;51.208;4.432;2023-05-13T14:51:51;22.10;99.90
25300;DHT22;13241;51.208;4.432;2023-05-13T14:54:18;21.60;99.90
25300;DHT22;13241;51.208;4.432;2023-05-13T14:56:45;21.00;99.90
25300;DHT22;13241;51.208;4.432;2023-05-13T14:59:12;20.70;99.90
25300;DHT22;13241;51.208;4.432;2023-05-13T15:01:39;20.60;99.90
25300;DHT22;13241;51.208;4.432;2023-05-13T15:04:06;20.60;99.90
25300;DHT22;13241;51.208;4.432;2023-05-13T15:06:34;20.70;99.90
25300;DHT22;13241;51.208;4.432;2023-05-13T15:09:01;20.80;99.90
25300;DHT22;13241;51.208;4.432;2023-05-13T15:11:28;21.00;99.90
25300;DHT22;13241;51.208;4.432;2023-05-13T15:13:55;21.40;99.90
25300;DHT22;13241;51.208;4.432;2023-05-13T15:16:22;22.60;99.90
25300;DHT22;13241;51.208;4.432;2023-05-13T15:18:49;23.80;99.90
25300;DHT22;13241;51.208;4.432;2023-05-13T15:21:16;25.10;99.90
25300;DHT22;13241;51.208;4.432;2023-05-13T15:23:43;25.80;99.90
25300;DHT22;13241;51.208;4.432;2023-05-13T15:26:10;25.00;99.90
25300;DHT22;13241;51.208;4.432;2023-05-13T15:28:37;23.90;99.90
25300;DHT22;13241;51.208;4.432;2023-05-13T15:31:04;22.90;99.90
25300;DHT22;13241;51.208;4.432;2023-05-13T15:33:31;22.30;99.90
25300;DHT22;13241;51.208;4.432;2023-05-13T15:35:59;21.90;99.90
25300;DHT22;13241;51.208;4.432;2023-05-13T15:38:27;22.20;99.90
25300;DHT22;13241;51.208;4.432;2023-05-13T15:40:54;23.90;99.90
25300;DHT22;13241;51.208;4.432;2023-05-13T15:43:21;25.80;99.90
25300;DHT22;13241;51.208;4.432;2023-05-13T15:45:47;27.30;99.90
25300;DHT22;13241;51.208;4.432;2023-05-13T15:48:16;27.90;99.90
25300;DHT22;13241;51.208;4.432;2023-05-13T15:50:43;27.80;99.90
25300;DHT22;13241;51.208;4.432;2023-05-13T15:53:10;28.60;99.90
25300;DHT22;13241;51.208;4.432;2023-05-13T15:55:37;29.40;99.60
25300;DHT22;13241;51.208;4.432;2023-05-13T15:58:05;29.70;96.90
25300;DHT22;13241;51.208;4.432;2023-05-13T16:00:32;29.70;95.50
25300;DHT22;13241;51.208;4.432;2023-05-13T16:02:59;30.00;94.10
25300;DHT22;13241;51.208;4.432;2023-05-13T16:05:26;29.70;94.10
25300;DHT22;13241;51.208;4.432;2023-05-13T16:07:54;28.50;93.30
25300;DHT22;13241;51.208;4.432;2023-05-13T16:10:22;26.70;95.40
25300;DHT22;13241;51.208;4.432;2023-05-13T16:12:49;25.30;97.70